createdAt,value
2022-10-31T00:00:50.785Z,23.70
2022-10-31T00:03:20.421Z,21.63
2022-10-31T00:05:50.282Z,21.77
2022-10-31T00:08:19.084Z,21.67
2022-10-31T00:10:47.814Z,21.03
2022-10-31T00:13:16.643Z,22.03
2022-10-31T00:15:44.912Z,20.70
2022-10-31T00:18:13.412Z,21.87
2022-10-31T00:20:42.849Z,21.53
2022-10-31T00:23:12.574Z,21.73
2022-10-31T00:25:42.160Z,20.20
2022-10-31T00:28:11.628Z,22.77
2022-10-31T00:30:40.172Z,24.63
2022-10-31T00:33:08.006Z,22.17
2022-10-31T00:35:35.895Z,20.90
2022-10-31T00:38:05.070Z,20.17
2022-10-31T00:40:33.038Z,21.77
2022-10-31T00:43:01.265Z,21.23
2022-10-31T00:45:29.528Z,21.97
2022-10-31T00:47:57.777Z,21.57
2022-10-31T00:50:25.973Z,22.50
2022-10-31T00:52:53.937Z,20.60
2022-10-31T00:55:23.208Z,22.30
2022-10-31T00:57:51.168Z,19.50
2022-10-31T01:00:19.263Z,20.33
2022-10-31T01:02:47.656Z,18.73
2022-10-31T01:05:15.757Z,17.97
2022-10-31T01:07:44.195Z,18.93
2022-10-31T01:10:13.401Z,16.97
2022-10-31T01:12:44.590Z,16.93
2022-10-31T01:15:14.803Z,18.17
2022-10-31T01:17:42.860Z,19.13
2022-10-31T01:20:12.456Z,16.60
2022-10-31T01:22:40.503Z,18.80
2022-10-31T01:25:10.139Z,16.23
2022-10-31T01:27:38.115Z,16.93
2022-10-31T01:30:08.575Z,16.50
2022-10-31T01:32:36.560Z,17.70
2022-10-31T01:35:04.757Z,16.90
2022-10-31T01:37:33.501Z,15.43
2022-10-31T01:40:01.442Z,16.57
2022-10-31T01:42:29.456Z,12.87
2022-10-31T01:45:02.425Z,13.07
2022-10-31T01:47:39.884Z,14.77
2022-10-31T01:50:15.005Z,13.93
2022-10-31T01:52:46.780Z,13.37
2022-10-31T01:55:20.093Z,14.00
2022-10-31T01:57:52.793Z,14.43
2022-10-31T02:00:22.293Z,15.00
2022-10-31T02:02:52.463Z,14.30
2022-10-31T02:05:23.694Z,13.60
2022-10-31T02:07:56.475Z,15.00
2022-10-31T02:10:25.896Z,12.33
2022-10-31T02:12:56.804Z,14.53
2022-10-31T02:15:25.351Z,12.77
2022-10-31T02:17:55.166Z,13.40
2022-10-31T02:20:25.196Z,12.23
2022-10-31T02:23:18.659Z,12.97
2022-10-31T02:26:22.870Z,12.70
2022-10-31T02:29:08.887Z,13.27
2022-10-31T02:31:45.193Z,12.33
2022-10-31T02:34:20.989Z,12.33
2022-10-31T02:36:56.708Z,10.67
2022-10-31T02:39:28.435Z,12.13
2022-10-31T02:42:06.134Z,12.33
2022-10-31T02:44:40.364Z,11.23
2022-10-31T02:47:15.240Z,10.53
2022-10-31T02:49:47.894Z,11.47
2022-10-31T02:52:18.865Z,12.37
2022-10-31T02:54:48.512Z,10.63
2022-10-31T02:57:19.430Z,10.57
2022-10-31T02:59:52.212Z,10.87
2022-10-31T03:06:12.804Z,11.63
2022-10-31T03:08:52.017Z,11.57
2022-10-31T03:11:24.140Z,11.17
2022-10-31T03:13:59.529Z,11.03
2022-10-31T03:16:37.130Z,11.07
2022-10-31T03:19:08.779Z,10.33
2022-10-31T03:21:42.532Z,11.00
2022-10-31T03:24:12.663Z,10.37
2022-10-31T03:26:43.598Z,9.57
2022-10-31T03:29:14.789Z,11.73
2022-10-31T03:31:48.472Z,11.07
2022-10-31T03:34:19.140Z,8.97
2022-10-31T03:36:51.826Z,10.43
2022-10-31T03:39:22.195Z,11.07
2022-10-31T03:41:56.118Z,10.50
2022-10-31T03:44:25.701Z,8.87
2022-10-31T03:46:53.665Z,10.93
2022-10-31T03:49:21.922Z,9.93
2022-10-31T03:51:57.113Z,10.17
2022-10-31T03:54:33.942Z,9.23
2022-10-31T03:57:07.560Z,7.90
2022-10-31T03:59:39.164Z,9.17
2022-10-31T04:02:12.734Z,10.20
2022-10-31T04:04:41.750Z,9.40
2022-10-31T04:07:13.242Z,9.10
2022-10-31T04:09:45.590Z,8.83
2022-10-31T04:12:16.651Z,9.50
2022-10-31T04:14:48.785Z,8.57
2022-10-31T04:17:20.854Z,8.77
2022-10-31T04:19:48.790Z,8.20
2022-10-31T04:22:18.081Z,7.93
2022-10-31T04:24:46.032Z,9.43
2022-10-31T04:27:14.057Z,8.40
2022-10-31T04:29:44.408Z,8.67
2022-10-31T04:32:14.809Z,7.47
2022-10-31T04:34:42.734Z,7.53
2022-10-31T04:37:10.656Z,8.33
2022-10-31T04:39:39.967Z,8.10
2022-10-31T04:42:07.872Z,8.23
2022-10-31T04:44:35.711Z,8.70
2022-10-31T04:47:03.606Z,7.80
2022-10-31T04:49:31.455Z,8.03
2022-10-31T04:51:59.385Z,7.20
2022-10-31T04:54:27.392Z,7.17
2022-10-31T04:56:56.753Z,6.30
2022-10-31T04:59:24.763Z,8.70
2022-10-31T05:01:52.759Z,7.70
2022-10-31T05:04:20.780Z,9.00
2022-10-31T05:06:48.695Z,8.93
2022-10-31T05:09:16.819Z,6.80
2022-10-31T05:11:44.657Z,7.70
2022-10-31T05:14:15.299Z,6.50
2022-10-31T05:16:43.251Z,6.87
2022-10-31T05:19:13.253Z,7.90
2022-10-31T05:21:41.208Z,6.87
2022-10-31T05:24:11.934Z,7.83
2022-10-31T05:26:40.700Z,7.13
2022-10-31T05:29:08.679Z,6.70
2022-10-31T05:31:37.964Z,6.70
2022-10-31T05:34:06.078Z,6.83
2022-10-31T05:36:34.349Z,7.57
2022-10-31T05:39:02.462Z,7.80
2022-10-31T05:41:30.346Z,6.87
2022-10-31T05:43:58.393Z,7.50
2022-10-31T05:46:26.346Z,4.57
2022-10-31T05:48:58.714Z,6.17
2022-10-31T05:51:30.486Z,6.97
2022-10-31T05:53:58.382Z,6.20
2022-10-31T05:56:26.448Z,6.20
2022-10-31T05:58:54.438Z,5.93
2022-10-31T06:01:22.543Z,6.60
2022-10-31T06:03:50.645Z,6.53
2022-10-31T06:06:20.362Z,6.10
2022-10-31T06:08:48.450Z,7.30
2022-10-31T06:11:16.550Z,6.50
2022-10-31T06:13:44.512Z,6.43
2022-10-31T06:16:14.000Z,7.20
2022-10-31T06:18:41.867Z,6.77
2022-10-31T06:21:11.540Z,7.10
2022-10-31T06:23:43.561Z,6.47
2022-10-31T06:26:11.873Z,6.60
2022-10-31T06:28:51.194Z,5.43
2022-10-31T06:31:21.392Z,6.20
2022-10-31T06:33:49.629Z,6.27
2022-10-31T06:36:17.789Z,6.47
2022-10-31T06:38:47.611Z,6.70
2022-10-31T06:41:15.598Z,7.07
2022-10-31T06:43:43.558Z,6.00
2022-10-31T06:46:11.874Z,7.27
2022-10-31T06:48:39.949Z,7.07
2022-10-31T06:51:07.988Z,6.00
2022-10-31T06:53:36.111Z,7.13
2022-10-31T06:56:06.195Z,7.30
2022-10-31T06:58:35.209Z,7.70
2022-10-31T07:01:03.547Z,8.50
2022-10-31T07:03:31.579Z,7.43
2022-10-31T07:05:59.738Z,7.97
2022-10-31T07:08:27.949Z,7.73
2022-10-31T07:10:58.123Z,8.73
2022-10-31T07:13:27.470Z,8.57
2022-10-31T07:15:56.632Z,8.13
2022-10-31T07:18:24.675Z,7.90
2022-10-31T07:20:54.446Z,8.07
2022-10-31T07:23:22.359Z,8.47
2022-10-31T07:25:50.465Z,9.10
2022-10-31T07:28:18.529Z,7.03
2022-10-31T07:30:52.233Z,8.33
2022-10-31T07:33:20.372Z,7.10
2022-10-31T07:35:48.520Z,7.07
2022-10-31T07:38:17.442Z,8.13
2022-10-31T07:40:45.928Z,7.27
2022-10-31T07:43:14.859Z,7.63
2022-10-31T07:45:43.173Z,6.93
2022-10-31T07:48:12.663Z,7.17
2022-10-31T07:50:42.190Z,7.50
2022-10-31T07:53:20.727Z,7.70
2022-10-31T07:55:49.069Z,6.97
2022-10-31T07:58:18.400Z,6.73
2022-10-31T08:00:48.514Z,7.00
2022-10-31T08:03:19.859Z,7.20
2022-10-31T08:05:48.337Z,6.53
2022-10-31T08:08:17.718Z,7.10
2022-10-31T08:10:45.709Z,7.60
2022-10-31T08:13:15.266Z,7.77
2022-10-31T08:15:43.671Z,7.00
2022-10-31T08:18:15.059Z,6.77
2022-10-31T08:20:48.074Z,7.10
2022-10-31T08:23:17.083Z,6.87
2022-10-31T08:25:47.978Z,7.37
2022-10-31T08:28:16.657Z,7.57
2022-10-31T08:30:56.066Z,6.50
2022-10-31T08:33:29.005Z,7.27
2022-10-31T08:36:00.201Z,7.67
2022-10-31T08:38:28.402Z,9.33
2022-10-31T08:40:58.987Z,10.53
2022-10-31T08:43:28.481Z,10.40
2022-10-31T08:45:56.608Z,10.70
2022-10-31T08:48:24.609Z,12.57
2022-10-31T08:50:53.304Z,10.00
2022-10-31T08:53:23.773Z,9.50
2022-10-31T08:55:51.799Z,11.63
2022-10-31T08:58:22.814Z,10.27
2022-10-31T09:00:54.300Z,10.53
2022-10-31T09:03:24.407Z,10.70
2022-10-31T09:05:57.068Z,12.07
2022-10-31T09:08:27.155Z,12.83
2022-10-31T09:10:58.203Z,13.53
2022-10-31T09:13:28.274Z,13.23
2022-10-31T09:15:58.082Z,14.47
2022-10-31T09:18:28.862Z,13.73
2022-10-31T09:20:59.961Z,11.87
2022-10-31T09:23:29.595Z,14.87
2022-10-31T09:25:57.833Z,14.03
2022-10-31T09:28:26.468Z,14.87
2022-10-31T09:30:55.858Z,15.30
2022-10-31T09:33:24.099Z,14.10
2022-10-31T09:35:52.128Z,15.17
2022-10-31T09:38:26.626Z,13.60
2022-10-31T09:41:07.362Z,13.60
2022-10-31T09:43:41.837Z,14.17
2022-10-31T09:46:16.610Z,13.57
2022-10-31T09:48:58.610Z,14.63
2022-10-31T09:51:31.265Z,14.17
2022-10-31T09:54:06.960Z,14.97
2022-10-31T09:56:36.901Z,15.17
2022-10-31T09:59:07.824Z,15.55
2022-10-31T10:01:45.167Z,16.47
2022-10-31T10:04:25.216Z,16.10
2022-10-31T10:06:54.121Z,16.17
2022-10-31T10:09:26.302Z,13.83
2022-10-31T10:12:06.055Z,14.20
2022-10-31T10:14:46.637Z,13.63
2022-10-31T10:17:24.196Z,14.50
2022-10-31T10:20:19.831Z,13.80
2022-10-31T10:22:54.634Z,13.50
2022-10-31T10:25:25.352Z,14.18
2022-10-31T10:28:04.968Z,13.18
2022-10-31T10:30:39.345Z,14.00
2022-10-31T10:33:12.611Z,11.77
2022-10-31T10:35:45.033Z,11.80
2022-10-31T10:38:22.639Z,14.63
2022-10-31T10:40:51.906Z,13.07
2022-10-31T10:43:26.388Z,12.40
2022-10-31T10:46:40.760Z,11.95
2022-10-31T10:49:21.079Z,12.07
2022-10-31T10:52:13.161Z,13.20
2022-10-31T10:54:58.550Z,11.63
2022-10-31T10:57:44.195Z,12.10
2022-10-31T11:00:22.531Z,12.68
2022-10-31T11:02:50.896Z,13.15
2022-10-31T11:05:30.619Z,12.23
2022-10-31T11:07:58.546Z,13.77
2022-10-31T11:10:26.812Z,13.53
2022-10-31T11:13:09.014Z,12.65
2022-10-31T11:15:50.965Z,12.00
2022-10-31T11:20:58.672Z,12.80
2022-10-31T11:23:28.252Z,11.50
2022-10-31T11:25:58.302Z,12.50
2022-10-31T11:28:27.032Z,12.07
2022-10-31T11:31:00.059Z,11.07
2022-10-31T11:33:33.004Z,11.18
2022-10-31T11:36:02.007Z,12.13
2022-10-31T11:38:35.920Z,12.13
2022-10-31T11:41:12.233Z,12.43
2022-10-31T11:43:41.634Z,12.20
2022-10-31T11:46:20.074Z,11.73
2022-10-31T11:48:50.646Z,12.27
2022-10-31T11:51:23.922Z,10.90
2022-10-31T11:53:56.971Z,12.00
2022-10-31T11:56:28.829Z,13.45
2022-10-31T11:59:01.636Z,13.35
2022-10-31T12:01:33.614Z,12.63
2022-10-31T12:04:09.486Z,13.45
2022-10-31T12:06:39.700Z,13.55
2022-10-31T12:09:20.374Z,13.90
2022-10-31T12:12:10.800Z,14.50
2022-10-31T12:14:49.010Z,12.00
2022-10-31T12:17:25.560Z,14.07
2022-10-31T12:20:04.923Z,12.93
2022-10-31T12:22:41.728Z,13.20
2022-10-31T12:25:26.666Z,14.98
2022-10-31T12:28:17.043Z,13.07
2022-10-31T12:30:56.993Z,14.43
2022-10-31T12:33:45.529Z,13.18
2022-10-31T12:36:27.516Z,12.95
2022-10-31T12:39:25.560Z,12.32
2022-10-31T12:41:58.143Z,13.43
2022-10-31T12:44:52.629Z,13.40
2022-10-31T12:47:39.229Z,12.88
2022-10-31T12:50:22.719Z,13.00
2022-10-31T12:53:01.688Z,12.48
2022-10-31T12:55:42.541Z,13.05
2022-10-31T12:58:16.549Z,13.15
2022-10-31T13:00:48.635Z,13.60
2022-10-31T13:03:30.994Z,13.40
2022-10-31T13:06:05.517Z,14.00
2022-10-31T13:08:41.683Z,12.35
2022-10-31T13:11:14.514Z,12.20
2022-10-31T13:13:46.316Z,13.38
2022-10-31T13:16:21.781Z,13.13
2022-10-31T13:18:54.125Z,14.35
2022-10-31T13:21:25.901Z,13.32
2022-10-31T13:23:54.108Z,13.80
2022-10-31T13:26:29.189Z,13.90
2022-10-31T13:29:03.608Z,15.57
2022-10-31T13:31:31.778Z,13.52
2022-10-31T13:34:04.371Z,14.23
2022-10-31T13:36:40.231Z,15.50
2022-10-31T13:39:23.389Z,13.85
2022-10-31T13:41:56.531Z,15.93
2022-10-31T13:44:26.970Z,16.55
2022-10-31T13:46:55.847Z,15.32
2022-10-31T13:49:40.213Z,16.33
2022-10-31T13:52:16.593Z,15.45
2022-10-31T13:54:46.097Z,16.87
2022-10-31T13:57:20.920Z,14.93
2022-10-31T13:59:55.086Z,16.27
2022-10-31T14:02:28.969Z,16.83
2022-10-31T14:05:00.931Z,16.90
2022-10-31T14:07:31.564Z,16.30
2022-10-31T14:10:03.297Z,16.03
2022-10-31T14:12:35.569Z,18.03
2022-10-31T14:15:15.717Z,17.37
2022-10-31T14:17:50.024Z,17.47
2022-10-31T14:20:28.066Z,18.20
2022-10-31T14:22:57.506Z,19.53
2022-10-31T14:25:34.429Z,18.63
2022-10-31T14:28:04.804Z,18.40
2022-10-31T14:30:33.460Z,18.90
2022-10-31T14:33:03.823Z,18.10
2022-10-31T14:35:48.864Z,19.17
2022-10-31T14:38:56.950Z,19.60
2022-10-31T14:41:41.515Z,19.50
2022-10-31T14:44:29.930Z,18.83
2022-10-31T14:47:04.557Z,18.03
2022-10-31T14:50:05.032Z,21.10
2022-10-31T14:52:33.959Z,16.47
2022-10-31T14:55:06.623Z,19.20
2022-10-31T14:57:38.465Z,20.27
2022-10-31T15:00:09.687Z,19.53
2022-10-31T15:05:19.793Z,18.47
2022-10-31T15:07:52.991Z,18.33
2022-10-31T15:10:27.480Z,19.33
2022-10-31T15:12:55.680Z,19.97
2022-10-31T15:15:25.665Z,19.33
2022-10-31T15:17:56.754Z,21.30
2022-10-31T15:20:27.983Z,16.80
2022-10-31T15:22:58.448Z,18.10
2022-10-31T15:25:32.227Z,17.87
2022-10-31T15:28:00.502Z,18.20
2022-10-31T15:30:30.711Z,16.50
2022-10-31T15:32:59.438Z,17.57
2022-10-31T15:35:29.499Z,17.93
2022-10-31T15:37:59.446Z,16.23
2022-10-31T15:40:30.006Z,18.20
2022-10-31T15:43:00.595Z,16.17
2022-10-31T15:45:31.367Z,17.93
2022-10-31T15:48:01.831Z,17.33
2022-10-31T15:50:34.188Z,18.87
2022-10-31T15:53:03.057Z,16.63
2022-10-31T15:55:38.664Z,17.30
2022-10-31T15:58:13.931Z,16.70
2022-10-31T16:00:42.156Z,19.50
2022-10-31T16:03:22.703Z,18.53
2022-10-31T16:05:52.050Z,17.67
2022-10-31T16:08:35.494Z,17.70
2022-10-31T16:11:24.497Z,17.27
2022-10-31T16:14:01.214Z,18.00
2022-10-31T16:16:35.703Z,19.47
2022-10-31T16:19:07.233Z,18.07
2022-10-31T16:21:38.505Z,18.20
2022-10-31T16:24:18.250Z,20.13
2022-10-31T16:26:51.387Z,16.80
2022-10-31T16:29:30.705Z,19.67
2022-10-31T16:31:58.702Z,24.57
2022-10-31T16:34:27.263Z,22.67
2022-10-31T16:36:55.641Z,18.87
2022-10-31T16:39:23.308Z,17.57
2022-10-31T16:41:54.543Z,17.27
2022-10-31T16:44:25.413Z,16.20
2022-10-31T16:47:11.651Z,18.33
2022-10-31T16:49:39.734Z,18.03
2022-10-31T16:52:07.542Z,17.20
2022-10-31T16:54:35.783Z,15.73
2022-10-31T16:57:07.246Z,18.53
2022-10-31T16:59:36.116Z,16.90
2022-10-31T17:02:05.715Z,17.30
2022-10-31T17:04:33.911Z,16.47
2022-10-31T17:07:01.952Z,15.27
2022-10-31T17:09:30.105Z,16.97
2022-10-31T17:11:58.150Z,15.63
2022-10-31T17:14:27.969Z,18.10
2022-10-31T17:16:58.930Z,18.20
2022-10-31T17:19:26.797Z,18.13
2022-10-31T17:21:54.793Z,18.40
2022-10-31T17:24:22.909Z,16.53
2022-10-31T17:26:50.912Z,17.33
2022-10-31T17:29:18.942Z,17.90
2022-10-31T17:31:49.378Z,18.40
2022-10-31T17:34:19.154Z,16.87
2022-10-31T17:36:51.621Z,18.00
2022-10-31T17:39:20.128Z,18.30
2022-10-31T17:41:51.430Z,17.43
2022-10-31T17:44:20.160Z,18.97
2022-10-31T17:46:50.461Z,16.77
2022-10-31T17:49:18.556Z,16.37
2022-10-31T17:51:46.514Z,17.80
2022-10-31T17:54:18.507Z,16.40
2022-10-31T17:56:46.569Z,18.20
2022-10-31T17:59:14.533Z,17.30
2022-10-31T18:01:42.849Z,17.33
2022-10-31T18:04:12.240Z,17.80
2022-10-31T18:06:40.187Z,19.00
2022-10-31T18:09:08.383Z,18.77
2022-10-31T18:11:36.326Z,19.37
2022-10-31T18:14:04.532Z,20.80
2022-10-31T18:16:32.658Z,18.23
2022-10-31T18:19:01.966Z,18.07
2022-10-31T18:21:31.489Z,20.00
2022-10-31T18:24:00.745Z,17.77
2022-10-31T18:26:29.546Z,17.70
2022-10-31T18:28:57.622Z,18.93
2022-10-31T18:31:25.879Z,18.90
2022-10-31T18:33:54.694Z,21.33
2022-10-31T18:36:23.265Z,19.27
2022-10-31T18:38:52.720Z,17.80
2022-10-31T18:41:20.913Z,17.33
2022-10-31T18:43:48.812Z,18.03
2022-10-31T18:46:18.410Z,17.20
2022-10-31T18:48:47.037Z,17.80
2022-10-31T18:51:18.403Z,17.33
2022-10-31T18:53:53.029Z,17.20
2022-10-31T18:56:21.848Z,18.70
2022-10-31T18:58:50.096Z,18.27
2022-10-31T19:01:19.617Z,19.57
2022-10-31T19:03:52.836Z,17.33
2022-10-31T19:06:20.858Z,19.67
2022-10-31T19:08:48.819Z,18.37
2022-10-31T19:11:18.217Z,17.20
2022-10-31T19:13:46.129Z,16.03
2022-10-31T19:16:16.558Z,17.67
2022-10-31T19:18:45.420Z,14.73
2022-10-31T19:21:15.186Z,17.23
2022-10-31T19:23:44.061Z,15.77
2022-10-31T19:26:12.569Z,16.70
2022-10-31T19:28:42.751Z,17.33
2022-10-31T19:31:11.395Z,17.13
2022-10-31T19:33:39.831Z,14.93
2022-10-31T19:36:09.994Z,16.47
2022-10-31T19:38:39.260Z,16.50
2022-10-31T19:41:09.566Z,16.13
2022-10-31T19:43:38.037Z,17.43
2022-10-31T19:46:17.398Z,16.70
2022-10-31T19:48:57.185Z,17.07
2022-10-31T19:51:25.306Z,15.63
2022-10-31T19:53:53.653Z,18.37
2022-10-31T19:56:24.801Z,16.17
2022-10-31T19:58:52.991Z,17.97
2022-10-31T20:01:23.714Z,19.17
2022-10-31T20:03:52.226Z,16.07
2022-10-31T20:06:24.784Z,17.33
2022-10-31T20:08:53.503Z,17.57
2022-10-31T20:11:22.025Z,17.73
2022-10-31T20:13:50.422Z,18.97
2022-10-31T20:16:18.761Z,19.47
2022-10-31T20:18:48.072Z,19.43
2022-10-31T20:21:18.323Z,18.03
2022-10-31T20:23:47.531Z,18.43
2022-10-31T20:26:17.812Z,17.97
2022-10-31T20:28:46.590Z,17.80
2022-10-31T20:31:17.521Z,17.70
2022-10-31T20:33:47.126Z,17.87
2022-10-31T20:36:19.456Z,19.47
2022-10-31T20:38:48.044Z,20.00
2022-10-31T20:41:17.318Z,19.67
2022-10-31T20:43:45.778Z,18.93
2022-10-31T20:46:16.737Z,18.67
2022-10-31T20:48:45.855Z,20.80
2022-10-31T20:53:50.072Z,18.90
2022-10-31T20:56:20.162Z,21.90
2022-10-31T20:58:48.669Z,20.67
2022-10-31T21:01:18.474Z,21.83
2022-10-31T21:08:22.819Z,23.57
2022-10-31T21:16:38.397Z,19.43
2022-10-31T21:34:47.985Z,19.67
2022-10-31T21:44:17.666Z,21.90
2022-10-31T21:46:48.191Z,19.50
2022-10-31T21:49:16.284Z,21.83
2022-10-31T21:51:44.636Z,21.60
2022-10-31T21:54:30.149Z,22.33
2022-10-31T21:56:59.847Z,22.07
2022-10-31T21:59:28.122Z,21.27
2022-10-31T22:01:59.796Z,19.93
2022-10-31T22:04:28.519Z,22.27
2022-10-31T22:06:56.740Z,21.67
2022-10-31T22:09:24.734Z,21.10
2022-10-31T22:11:52.782Z,21.03
2022-10-31T22:14:20.612Z,21.17
2022-10-31T22:16:48.562Z,21.60
2022-10-31T22:19:17.956Z,19.50
2022-10-31T22:21:48.620Z,19.83
2022-10-31T22:24:18.051Z,17.90
2022-10-31T22:26:46.322Z,18.93
2022-10-31T22:29:16.555Z,18.80
2022-10-31T22:31:49.467Z,21.27
2022-10-31T22:34:21.520Z,19.83
2022-10-31T22:36:49.448Z,19.07
2022-10-31T22:39:17.421Z,18.83
2022-10-31T22:41:45.407Z,21.80
2022-10-31T22:44:13.628Z,19.80
2022-10-31T22:46:41.876Z,17.50
2022-10-31T22:49:14.005Z,20.47
2022-10-31T22:51:44.381Z,20.00
2022-10-31T22:54:17.377Z,22.00
2022-10-31T22:56:45.674Z,18.20
2022-10-31T22:59:14.838Z,20.27
2022-10-31T23:01:44.870Z,20.10
2022-10-31T23:04:13.464Z,20.20
2022-10-31T23:06:43.197Z,20.40
2022-10-31T23:09:15.828Z,21.27
2022-10-31T23:11:44.176Z,19.23
2022-10-31T23:14:16.886Z,20.53
2022-10-31T23:16:48.161Z,20.03
2022-10-31T23:19:18.548Z,20.30
2022-10-31T23:21:56.158Z,19.27
2022-10-31T23:24:26.387Z,21.43
2022-10-31T23:27:10.024Z,20.70
2022-10-31T23:29:44.480Z,18.60
2022-10-31T23:32:17.543Z,19.27
2022-10-31T23:34:46.056Z,20.70
2022-10-31T23:37:16.611Z,21.10
2022-10-31T23:39:44.820Z,18.50
2022-10-31T23:42:13.703Z,19.97
2022-10-31T23:44:41.654Z,19.07
2022-10-31T23:47:10.049Z,19.60
2022-10-31T23:49:38.117Z,19.57
2022-10-31T23:52:06.825Z,21.10
2022-10-31T23:54:36.440Z,21.47
2022-10-31T23:57:05.156Z,19.87
2022-10-31T23:59:33.319Z,19.43
